sensor_id;sensor_type;location;lat;lon;timestamp;temperature;humidity
49861;DHT22;35761;48.826;9.238;2022-08-19T00:01:58;22.30;40.20
49861;DHT22;35761;48.826;9.238;2022-08-19T00:04:29;22.20;40.60
49861;DHT22;35761;48.826;9.238;2022-08-19T00:07:00;22.20;40.50
49861;DHT22;35761;48.826;9.238;2022-08-19T00:09:28;22.20;40.50
49861;DHT22;35761;48.826;9.238;2022-08-19T00:11:58;22.20;40.60
49861;DHT22;35761;48.826;9.238;2022-08-19T00:14:28;22.10;41.00
49861;DHT22;35761;48.826;9.238;2022-08-19T00:17:00;22.10;41.20
49861;DHT22;35761;48.826;9.238;2022-08-19T00:19:30;22.10;41.10
49861;DHT22;35761;48.826;9.238;2022-08-19T00:21:59;22.00;41.20
49861;DHT22;35761;48.826;9.238;2022-08-19T00:24:27;22.00;41.30
49861;DHT22;35761;48.826;9.238;2022-08-19T00:26:56;22.00;41.30
49861;DHT22;35761;48.826;9.238;2022-08-19T00:29:45;22.00;41.40
49861;DHT22;35761;48.826;9.238;2022-08-19T00:32:20;22.00;41.60
49861;DHT22;35761;48.826;9.238;2022-08-19T00:34:49;21.90;41.70
49861;DHT22;35761;48.826;9.238;2022-08-19T00:37:22;21.90;41.60
49861;DHT22;35761;48.826;9.238;2022-08-19T00:39:53;21.90;41.70
49861;DHT22;35761;48.826;9.238;2022-08-19T00:42:22;21.90;41.70
49861;DHT22;35761;48.826;9.238;2022-08-19T00:44:55;21.90;41.60
49861;DHT22;35761;48.826;9.238;2022-08-19T00:47:24;21.90;41.80
49861;DHT22;35761;48.826;9.238;2022-08-19T00:49:56;21.80;41.90
49861;DHT22;35761;48.826;9.238;2022-08-19T00:52:28;21.80;42.30
49861;DHT22;35761;48.826;9.238;2022-08-19T00:54:58;21.80;41.90
49861;DHT22;35761;48.826;9.238;2022-08-19T00:57:31;21.80;41.70
49861;DHT22;35761;48.826;9.238;2022-08-19T01:00:04;21.80;41.90
49861;DHT22;35761;48.826;9.238;2022-08-19T01:02:36;21.80;41.90
49861;DHT22;35761;48.826;9.238;2022-08-19T01:05:08;21.80;42.10
49861;DHT22;35761;48.826;9.238;2022-08-19T01:07:39;21.80;42.20
49861;DHT22;35761;48.826;9.238;2022-08-19T01:10:13;21.80;42.10
49861;DHT22;35761;48.826;9.238;2022-08-19T01:12:45;21.80;42.10
49861;DHT22;35761;48.826;9.238;2022-08-19T01:15:23;21.70;42.20
49861;DHT22;35761;48.826;9.238;2022-08-19T01:17:57;21.70;42.20
49861;DHT22;35761;48.826;9.238;2022-08-19T01:20:27;21.70;42.40
49861;DHT22;35761;48.826;9.238;2022-08-19T01:22:58;21.70;42.40
49861;DHT22;35761;48.826;9.238;2022-08-19T01:25:35;21.60;42.60
49861;DHT22;35761;48.826;9.238;2022-08-19T01:28:08;21.60;42.70
49861;DHT22;35761;48.826;9.238;2022-08-19T01:30:37;21.70;42.70
49861;DHT22;35761;48.826;9.238;2022-08-19T01:33:10;21.70;42.70
49861;DHT22;35761;48.826;9.238;2022-08-19T01:35:39;21.60;42.70
49861;DHT22;35761;48.826;9.238;2022-08-19T01:38:19;21.60;43.60
49861;DHT22;35761;48.826;9.238;2022-08-19T01:40:50;21.50;43.10
49861;DHT22;35761;48.826;9.238;2022-08-19T01:43:19;21.60;43.20
49861;DHT22;35761;48.826;9.238;2022-08-19T01:45:47;21.50;43.20
49861;DHT22;35761;48.826;9.238;2022-08-19T01:48:17;21.50;43.30
49861;DHT22;35761;48.826;9.238;2022-08-19T01:50:46;21.50;43.50
49861;DHT22;35761;48.826;9.238;2022-08-19T01:53:18;21.40;43.60
49861;DHT22;35761;48.826;9.238;2022-08-19T01:55:48;21.50;43.70
49861;DHT22;35761;48.826;9.238;2022-08-19T01:58:21;21.50;43.80
49861;DHT22;35761;48.826;9.238;2022-08-19T02:00:51;21.40;43.80
49861;DHT22;35761;48.826;9.238;2022-08-19T02:03:19;21.40;44.00
49861;DHT22;35761;48.826;9.238;2022-08-19T02:05:47;21.40;44.10
49861;DHT22;35761;48.826;9.238;2022-08-19T02:08:22;21.30;44.30
49861;DHT22;35761;48.826;9.238;2022-08-19T02:10:51;21.30;44.40
49861;DHT22;35761;48.826;9.238;2022-08-19T02:13:20;21.30;44.50
49861;DHT22;35761;48.826;9.238;2022-08-19T02:15:52;21.30;44.60
49861;DHT22;35761;48.826;9.238;2022-08-19T02:18:20;21.30;44.80
49861;DHT22;35761;48.826;9.238;2022-08-19T02:20:54;21.30;44.80
49861;DHT22;35761;48.826;9.238;2022-08-19T02:23:24;21.30;45.00
49861;DHT22;35761;48.826;9.238;2022-08-19T02:25:54;21.20;45.30
49861;DHT22;35761;48.826;9.238;2022-08-19T02:28:22;21.20;45.40
49861;DHT22;35761;48.826;9.238;2022-08-19T02:30:51;21.20;45.50
49861;DHT22;35761;48.826;9.238;2022-08-19T02:33:19;21.20;45.40
49861;DHT22;35761;48.826;9.238;2022-08-19T02:35:47;21.20;45.60
49861;DHT22;35761;48.826;9.238;2022-08-19T02:38:16;21.20;45.70
49861;DHT22;35761;48.826;9.238;2022-08-19T02:40:56;21.10;45.80
49861;DHT22;35761;48.826;9.238;2022-08-19T02:43:28;21.10;45.80
49861;DHT22;35761;48.826;9.238;2022-08-19T02:46:01;21.10;46.00
49861;DHT22;35761;48.826;9.238;2022-08-19T02:48:30;21.10;46.00
49861;DHT22;35761;48.826;9.238;2022-08-19T02:50:59;21.10;46.20
49861;DHT22;35761;48.826;9.238;2022-08-19T02:53:28;21.10;46.30
49861;DHT22;35761;48.826;9.238;2022-08-19T02:55:58;21.00;46.50
49861;DHT22;35761;48.826;9.238;2022-08-19T02:58:26;21.00;46.40
49861;DHT22;35761;48.826;9.238;2022-08-19T03:00:56;21.00;46.50
49861;DHT22;35761;48.826;9.238;2022-08-19T03:03:25;21.00;46.70
49861;DHT22;35761;48.826;9.238;2022-08-19T03:06:04;21.00;46.60
49861;DHT22;35761;48.826;9.238;2022-08-19T03:08:34;20.90;46.80
49861;DHT22;35761;48.826;9.238;2022-08-19T03:11:04;20.90;47.00
49861;DHT22;35761;48.826;9.238;2022-08-19T03:13:33;20.80;47.10
49861;DHT22;35761;48.826;9.238;2022-08-19T03:16:05;20.80;47.10
49861;DHT22;35761;48.826;9.238;2022-08-19T03:18:33;20.80;47.10
49861;DHT22;35761;48.826;9.238;2022-08-19T03:21:02;20.80;47.10
49861;DHT22;35761;48.826;9.238;2022-08-19T03:23:31;20.80;47.40
49861;DHT22;35761;48.826;9.238;2022-08-19T03:26:04;20.70;47.50
49861;DHT22;35761;48.826;9.238;2022-08-19T03:28:43;20.70;47.60
49861;DHT22;35761;48.826;9.238;2022-08-19T03:31:25;20.80;47.40
49861;DHT22;35761;48.826;9.238;2022-08-19T03:34:17;20.70;47.20
49861;DHT22;35761;48.826;9.238;2022-08-19T03:36:48;20.70;47.50
49861;DHT22;35761;48.826;9.238;2022-08-19T03:39:17;20.70;47.40
49861;DHT22;35761;48.826;9.238;2022-08-19T03:41:49;20.70;47.40
49861;DHT22;35761;48.826;9.238;2022-08-19T03:44:38;20.70;47.50
49861;DHT22;35761;48.826;9.238;2022-08-19T03:47:07;20.60;47.50
49861;DHT22;35761;48.826;9.238;2022-08-19T03:49:35;20.60;47.60
49861;DHT22;35761;48.826;9.238;2022-08-19T03:52:04;20.60;47.80
49861;DHT22;35761;48.826;9.238;2022-08-19T03:54:35;20.60;47.80
49861;DHT22;35761;48.826;9.238;2022-08-19T03:57:06;20.60;47.80
49861;DHT22;35761;48.826;9.238;2022-08-19T03:59:36;20.60;48.70
49861;DHT22;35761;48.826;9.238;2022-08-19T04:02:08;20.50;48.10
49861;DHT22;35761;48.826;9.238;2022-08-19T04:04:39;20.50;48.20
49861;DHT22;35761;48.826;9.238;2022-08-19T04:07:10;20.50;48.30
49861;DHT22;35761;48.826;9.238;2022-08-19T04:09:42;20.50;48.50
49861;DHT22;35761;48.826;9.238;2022-08-19T04:12:12;20.50;48.30
49861;DHT22;35761;48.826;9.238;2022-08-19T04:14:41;20.50;48.50
49861;DHT22;35761;48.826;9.238;2022-08-19T04:17:10;20.50;48.60
49861;DHT22;35761;48.826;9.238;2022-08-19T04:19:39;20.50;48.30
49861;DHT22;35761;48.826;9.238;2022-08-19T04:22:09;20.50;48.60
49861;DHT22;35761;48.826;9.238;2022-08-19T04:24:39;20.50;48.60
49861;DHT22;35761;48.826;9.238;2022-08-19T04:27:07;20.50;48.60
49861;DHT22;35761;48.826;9.238;2022-08-19T04:29:37;20.50;48.70
49861;DHT22;35761;48.826;9.238;2022-08-19T04:32:07;20.50;48.70
49861;DHT22;35761;48.826;9.238;2022-08-19T04:34:36;20.40;48.50
49861;DHT22;35761;48.826;9.238;2022-08-19T04:37:25;20.40;48.70
49861;DHT22;35761;48.826;9.238;2022-08-19T04:40:04;20.40;48.90
49861;DHT22;35761;48.826;9.238;2022-08-19T04:42:51;20.30;49.10
49861;DHT22;35761;48.826;9.238;2022-08-19T04:45:22;20.30;49.20
49861;DHT22;35761;48.826;9.238;2022-08-19T04:47:55;20.30;49.30
49861;DHT22;35761;48.826;9.238;2022-08-19T04:50:44;20.20;49.20
49861;DHT22;35761;48.826;9.238;2022-08-19T04:53:12;20.30;49.30
49861;DHT22;35761;48.826;9.238;2022-08-19T04:55:41;20.30;49.20
49861;DHT22;35761;48.826;9.238;2022-08-19T04:58:10;20.30;49.30
49861;DHT22;35761;48.826;9.238;2022-08-19T05:00:40;20.30;49.50
49861;DHT22;35761;48.826;9.238;2022-08-19T05:03:09;20.30;49.40
49861;DHT22;35761;48.826;9.238;2022-08-19T05:05:39;20.30;49.40
49861;DHT22;35761;48.826;9.238;2022-08-19T05:08:12;20.20;49.60
49861;DHT22;35761;48.826;9.238;2022-08-19T05:10:56;20.20;49.60
49861;DHT22;35761;48.826;9.238;2022-08-19T05:13:25;20.20;49.60
49861;DHT22;35761;48.826;9.238;2022-08-19T05:15:56;20.20;49.80
49861;DHT22;35761;48.826;9.238;2022-08-19T05:18:26;20.20;49.80
49861;DHT22;35761;48.826;9.238;2022-08-19T05:21:14;20.20;49.70
49861;DHT22;35761;48.826;9.238;2022-08-19T05:24:12;20.20;49.80
49861;DHT22;35761;48.826;9.238;2022-08-19T05:26:44;20.10;49.90
49861;DHT22;35761;48.826;9.238;2022-08-19T05:29:15;20.10;50.00
49861;DHT22;35761;48.826;9.238;2022-08-19T05:31:50;20.10;50.20
49861;DHT22;35761;48.826;9.238;2022-08-19T05:34:22;20.10;50.40
49861;DHT22;35761;48.826;9.238;2022-08-19T05:36:56;20.10;50.30
49861;DHT22;35761;48.826;9.238;2022-08-19T05:39:28;20.20;50.30
49861;DHT22;35761;48.826;9.238;2022-08-19T05:41:58;20.20;50.20
49861;DHT22;35761;48.826;9.238;2022-08-19T05:44:30;20.10;50.50
49861;DHT22;35761;48.826;9.238;2022-08-19T05:47:02;20.10;50.80
49861;DHT22;35761;48.826;9.238;2022-08-19T05:49:33;20.20;50.30
49861;DHT22;35761;48.826;9.238;2022-08-19T05:52:03;20.20;50.30
49861;DHT22;35761;48.826;9.238;2022-08-19T05:54:33;20.20;50.50
49861;DHT22;35761;48.826;9.238;2022-08-19T05:57:03;20.20;50.40
49861;DHT22;35761;48.826;9.238;2022-08-19T05:59:31;20.20;50.30
49861;DHT22;35761;48.826;9.238;2022-08-19T06:02:06;20.20;50.40
49861;DHT22;35761;48.826;9.238;2022-08-19T06:04:35;20.20;50.60
49861;DHT22;35761;48.826;9.238;2022-08-19T06:07:03;20.10;50.70
49861;DHT22;35761;48.826;9.238;2022-08-19T06:09:38;20.10;50.90
49861;DHT22;35761;48.826;9.238;2022-08-19T06:12:09;20.10;50.80
49861;DHT22;35761;48.826;9.238;2022-08-19T06:14:38;20.10;50.80
49861;DHT22;35761;48.826;9.238;2022-08-19T06:17:09;20.10;51.20
49861;DHT22;35761;48.826;9.238;2022-08-19T06:19:38;20.10;51.40
49861;DHT22;35761;48.826;9.238;2022-08-19T06:22:07;20.10;51.30
49861;DHT22;35761;48.826;9.238;2022-08-19T06:24:38;20.20;51.30
49861;DHT22;35761;48.826;9.238;2022-08-19T06:27:07;20.20;51.40
49861;DHT22;35761;48.826;9.238;2022-08-19T06:29:35;20.20;51.50
49861;DHT22;35761;48.826;9.238;2022-08-19T06:32:04;20.10;51.50
49861;DHT22;35761;48.826;9.238;2022-08-19T06:34:34;20.10;52.00
49861;DHT22;35761;48.826;9.238;2022-08-19T06:37:03;20.10;51.90
49861;DHT22;35761;48.826;9.238;2022-08-19T06:39:36;20.10;52.50
49861;DHT22;35761;48.826;9.238;2022-08-19T06:42:08;20.10;52.30
49861;DHT22;35761;48.826;9.238;2022-08-19T06:44:40;20.10;52.20
49861;DHT22;35761;48.826;9.238;2022-08-19T06:47:17;20.10;52.40
49861;DHT22;35761;48.826;9.238;2022-08-19T06:49:54;20.10;52.70
49861;DHT22;35761;48.826;9.238;2022-08-19T06:52:29;20.10;52.70
49861;DHT22;35761;48.826;9.238;2022-08-19T06:55:00;20.10;52.70
49861;DHT22;35761;48.826;9.238;2022-08-19T06:57:32;20.10;52.40
49861;DHT22;35761;48.826;9.238;2022-08-19T07:00:01;20.10;52.80
49861;DHT22;35761;48.826;9.238;2022-08-19T07:02:30;20.10;53.00
49861;DHT22;35761;48.826;9.238;2022-08-19T07:05:01;20.00;53.40
49861;DHT22;35761;48.826;9.238;2022-08-19T07:07:33;20.00;53.50
49861;DHT22;35761;48.826;9.238;2022-08-19T07:10:02;20.00;53.50
49861;DHT22;35761;48.826;9.238;2022-08-19T07:12:33;20.00;53.60
49861;DHT22;35761;48.826;9.238;2022-08-19T07:15:05;20.00;54.10
49861;DHT22;35761;48.826;9.238;2022-08-19T07:17:35;20.10;53.80
49861;DHT22;35761;48.826;9.238;2022-08-19T07:20:10;20.10;53.20
49861;DHT22;35761;48.826;9.238;2022-08-19T07:22:39;20.10;52.90
49861;DHT22;35761;48.826;9.238;2022-08-19T07:25:08;20.10;52.80
49861;DHT22;35761;48.826;9.238;2022-08-19T07:27:38;20.10;53.30
49861;DHT22;35761;48.826;9.238;2022-08-19T07:30:08;20.10;53.20
49861;DHT22;35761;48.826;9.238;2022-08-19T07:32:40;20.10;52.70
49861;DHT22;35761;48.826;9.238;2022-08-19T07:35:10;20.10;52.60
49861;DHT22;35761;48.826;9.238;2022-08-19T07:37:39;20.20;52.10
49861;DHT22;35761;48.826;9.238;2022-08-19T07:40:11;20.20;52.10
49861;DHT22;35761;48.826;9.238;2022-08-19T07:42:40;20.20;51.80
49861;DHT22;35761;48.826;9.238;2022-08-19T07:45:10;20.10;52.20
49861;DHT22;35761;48.826;9.238;2022-08-19T07:47:38;20.10;52.00
49861;DHT22;35761;48.826;9.238;2022-08-19T07:50:20;20.10;52.40
49861;DHT22;35761;48.826;9.238;2022-08-19T07:52:49;20.10;52.40
49861;DHT22;35761;48.826;9.238;2022-08-19T07:55:21;20.10;52.40
49861;DHT22;35761;48.826;9.238;2022-08-19T07:58:09;20.10;52.20
49861;DHT22;35761;48.826;9.238;2022-08-19T08:00:39;20.10;52.70
49861;DHT22;35761;48.826;9.238;2022-08-19T08:03:08;20.10;52.60
49861;DHT22;35761;48.826;9.238;2022-08-19T08:05:38;20.10;52.70
49861;DHT22;35761;48.826;9.238;2022-08-19T08:08:24;20.10;52.80
49861;DHT22;35761;48.826;9.238;2022-08-19T08:11:16;20.10;53.00
49861;DHT22;35761;48.826;9.238;2022-08-19T08:13:47;20.10;53.50
49861;DHT22;35761;48.826;9.238;2022-08-19T08:16:33;20.10;54.30
49861;DHT22;35761;48.826;9.238;2022-08-19T08:19:14;20.10;54.30
49861;DHT22;35761;48.826;9.238;2022-08-19T08:21:56;20.10;54.40
49861;DHT22;35761;48.826;9.238;2022-08-19T08:24:26;20.10;54.50
49861;DHT22;35761;48.826;9.238;2022-08-19T08:26:58;20.00;54.80
49861;DHT22;35761;48.826;9.238;2022-08-19T08:29:37;20.10;54.70
49861;DHT22;35761;48.826;9.238;2022-08-19T08:32:08;20.20;55.00
49861;DHT22;35761;48.826;9.238;2022-08-19T08:34:41;20.10;55.50
49861;DHT22;35761;48.826;9.238;2022-08-19T08:37:11;20.10;55.60
49861;DHT22;35761;48.826;9.238;2022-08-19T08:39:42;20.20;55.50
49861;DHT22;35761;48.826;9.238;2022-08-19T08:42:15;20.10;55.20
49861;DHT22;35761;48.826;9.238;2022-08-19T08:44:52;20.10;55.80
49861;DHT22;35761;48.826;9.238;2022-08-19T08:47:31;20.10;55.80
49861;DHT22;35761;48.826;9.238;2022-08-19T08:50:10;20.10;56.30
49861;DHT22;35761;48.826;9.238;2022-08-19T08:52:46;20.20;56.40
49861;DHT22;35761;48.826;9.238;2022-08-19T08:55:18;20.20;56.50
49861;DHT22;35761;48.826;9.238;2022-08-19T08:57:53;20.20;57.00
49861;DHT22;35761;48.826;9.238;2022-08-19T09:00:25;20.20;57.00
49861;DHT22;35761;48.826;9.238;2022-08-19T09:02:55;20.30;57.40
49861;DHT22;35761;48.826;9.238;2022-08-19T09:05:35;20.30;56.80
49861;DHT22;35761;48.826;9.238;2022-08-19T09:08:20;20.30;56.90
49861;DHT22;35761;48.826;9.238;2022-08-19T09:10:56;20.30;56.90
49861;DHT22;35761;48.826;9.238;2022-08-19T09:13:31;20.40;56.70
49861;DHT22;35761;48.826;9.238;2022-08-19T09:16:06;20.40;57.40
49861;DHT22;35761;48.826;9.238;2022-08-19T09:18:40;20.40;57.60
49861;DHT22;35761;48.826;9.238;2022-08-19T09:21:10;20.40;57.60
49861;DHT22;35761;48.826;9.238;2022-08-19T09:23:40;20.40;56.70
49861;DHT22;35761;48.826;9.238;2022-08-19T09:26:13;20.40;57.20
49861;DHT22;35761;48.826;9.238;2022-08-19T09:28:44;20.50;56.60
49861;DHT22;35761;48.826;9.238;2022-08-19T09:31:17;20.40;56.10
49861;DHT22;35761;48.826;9.238;2022-08-19T09:33:48;20.50;56.60
49861;DHT22;35761;48.826;9.238;2022-08-19T09:36:20;20.50;56.00
49861;DHT22;35761;48.826;9.238;2022-08-19T09:39:03;20.50;56.30
49861;DHT22;35761;48.826;9.238;2022-08-19T09:41:42;20.50;56.40
49861;DHT22;35761;48.826;9.238;2022-08-19T09:44:14;20.50;56.40
49861;DHT22;35761;48.826;9.238;2022-08-19T09:46:45;20.50;56.00
49861;DHT22;35761;48.826;9.238;2022-08-19T09:49:15;20.60;56.00
49861;DHT22;35761;48.826;9.238;2022-08-19T09:51:46;20.60;55.70
49861;DHT22;35761;48.826;9.238;2022-08-19T09:54:19;20.60;55.80
49861;DHT22;35761;48.826;9.238;2022-08-19T09:56:51;20.60;55.80
49861;DHT22;35761;48.826;9.238;2022-08-19T09:59:20;20.60;56.80
49861;DHT22;35761;48.826;9.238;2022-08-19T10:01:49;20.60;56.20
49861;DHT22;35761;48.826;9.238;2022-08-19T10:04:19;20.60;55.30
49861;DHT22;35761;48.826;9.238;2022-08-19T10:06:49;20.70;55.20
49861;DHT22;35761;48.826;9.238;2022-08-19T10:09:21;20.70;55.10
49861;DHT22;35761;48.826;9.238;2022-08-19T10:12:01;20.70;55.30
49861;DHT22;35761;48.826;9.238;2022-08-19T10:14:32;20.70;54.80
49861;DHT22;35761;48.826;9.238;2022-08-19T10:17:01;20.70;54.90
49861;DHT22;35761;48.826;9.238;2022-08-19T10:19:48;20.80;54.80
49861;DHT22;35761;48.826;9.238;2022-08-19T10:22:23;20.80;54.60
49861;DHT22;35761;48.826;9.238;2022-08-19T10:24:53;20.80;54.80
49861;DHT22;35761;48.826;9.238;2022-08-19T10:27:22;20.80;55.10
49861;DHT22;35761;48.826;9.238;2022-08-19T10:29:52;20.80;55.10
49861;DHT22;35761;48.826;9.238;2022-08-19T10:32:21;20.80;54.10
49861;DHT22;35761;48.826;9.238;2022-08-19T10:35:00;20.90;53.20
49861;DHT22;35761;48.826;9.238;2022-08-19T10:37:32;21.00;53.60
49861;DHT22;35761;48.826;9.238;2022-08-19T10:40:04;20.90;53.70
49861;DHT22;35761;48.826;9.238;2022-08-19T10:42:34;21.00;53.60
49861;DHT22;35761;48.826;9.238;2022-08-19T10:45:04;21.00;53.50
49861;DHT22;35761;48.826;9.238;2022-08-19T10:47:33;21.00;53.30
49861;DHT22;35761;48.826;9.238;2022-08-19T10:50:03;21.00;53.40
49861;DHT22;35761;48.826;9.238;2022-08-19T10:52:56;21.00;53.20
49861;DHT22;35761;48.826;9.238;2022-08-19T10:55:25;21.00;52.90
49861;DHT22;35761;48.826;9.238;2022-08-19T10:58:12;21.00;53.20
49861;DHT22;35761;48.826;9.238;2022-08-19T11:00:42;21.10;52.50
49861;DHT22;35761;48.826;9.238;2022-08-19T11:03:11;21.00;52.80
49861;DHT22;35761;48.826;9.238;2022-08-19T11:05:40;21.00;53.90
49861;DHT22;35761;48.826;9.238;2022-08-19T11:08:08;21.10;52.00
49861;DHT22;35761;48.826;9.238;2022-08-19T11:10:52;21.10;51.80
49861;DHT22;35761;48.826;9.238;2022-08-19T11:13:22;21.10;52.00
49861;DHT22;35761;48.826;9.238;2022-08-19T11:15:59;21.10;52.50
49861;DHT22;35761;48.826;9.238;2022-08-19T11:18:35;21.10;52.70
49861;DHT22;35761;48.826;9.238;2022-08-19T11:21:09;21.10;52.60
49861;DHT22;35761;48.826;9.238;2022-08-19T11:23:40;21.10;52.80
49861;DHT22;35761;48.826;9.238;2022-08-19T11:26:10;21.10;53.90
49861;DHT22;35761;48.826;9.238;2022-08-19T11:28:41;21.20;54.40
49861;DHT22;35761;48.826;9.238;2022-08-19T11:31:10;21.20;55.10
49861;DHT22;35761;48.826;9.238;2022-08-19T11:33:39;21.20;52.70
49861;DHT22;35761;48.826;9.238;2022-08-19T11:36:13;21.20;52.90
49861;DHT22;35761;48.826;9.238;2022-08-19T11:38:44;21.30;51.50
49861;DHT22;35761;48.826;9.238;2022-08-19T11:41:17;21.30;52.50
49861;DHT22;35761;48.826;9.238;2022-08-19T11:43:47;21.30;52.50
49861;DHT22;35761;48.826;9.238;2022-08-19T11:46:16;21.40;49.60
49861;DHT22;35761;48.826;9.238;2022-08-19T11:48:45;21.50;48.90
49861;DHT22;35761;48.826;9.238;2022-08-19T11:51:22;21.50;48.80
49861;DHT22;35761;48.826;9.238;2022-08-19T11:53:54;21.60;47.80
49861;DHT22;35761;48.826;9.238;2022-08-19T11:56:25;21.60;47.60
49861;DHT22;35761;48.826;9.238;2022-08-19T11:58:55;21.60;47.30
49861;DHT22;35761;48.826;9.238;2022-08-19T12:01:25;21.60;47.50
49861;DHT22;35761;48.826;9.238;2022-08-19T12:03:56;21.60;48.10
49861;DHT22;35761;48.826;9.238;2022-08-19T12:06:29;21.60;49.20
49861;DHT22;35761;48.826;9.238;2022-08-19T12:09:02;21.60;49.30
49861;DHT22;35761;48.826;9.238;2022-08-19T12:11:33;21.50;49.90
49861;DHT22;35761;48.826;9.238;2022-08-19T12:14:03;21.60;49.70
49861;DHT22;35761;48.826;9.238;2022-08-19T12:16:32;21.60;49.70
49861;DHT22;35761;48.826;9.238;2022-08-19T12:19:05;21.50;50.50
49861;DHT22;35761;48.826;9.238;2022-08-19T12:21:35;21.60;50.10
49861;DHT22;35761;48.826;9.238;2022-08-19T12:24:04;21.60;50.90
49861;DHT22;35761;48.826;9.238;2022-08-19T12:26:35;21.60;51.00
49861;DHT22;35761;48.826;9.238;2022-08-19T12:29:20;21.50;51.30
49861;DHT22;35761;48.826;9.238;2022-08-19T12:31:55;21.60;51.00
49861;DHT22;35761;48.826;9.238;2022-08-19T12:34:28;21.60;50.70
49861;DHT22;35761;48.826;9.238;2022-08-19T12:36:58;21.60;49.40
49861;DHT22;35761;48.826;9.238;2022-08-19T12:39:28;21.60;50.00
49861;DHT22;35761;48.826;9.238;2022-08-19T12:41:59;21.60;50.60
49861;DHT22;35761;48.826;9.238;2022-08-19T12:44:27;21.70;53.60
49861;DHT22;35761;48.826;9.238;2022-08-19T12:46:59;21.70;54.20
49861;DHT22;35761;48.826;9.238;2022-08-19T12:49:32;21.60;54.90
49861;DHT22;35761;48.826;9.238;2022-08-19T12:52:23;21.60;56.30
49861;DHT22;35761;48.826;9.238;2022-08-19T12:54:52;21.60;57.70
49861;DHT22;35761;48.826;9.238;2022-08-19T12:57:24;21.70;57.70
49861;DHT22;35761;48.826;9.238;2022-08-19T12:59:58;21.60;57.00
49861;DHT22;35761;48.826;9.238;2022-08-19T13:02:30;21.60;57.10
49861;DHT22;35761;48.826;9.238;2022-08-19T13:05:07;21.60;57.50
49861;DHT22;35761;48.826;9.238;2022-08-19T13:07:39;21.60;57.70
49861;DHT22;35761;48.826;9.238;2022-08-19T13:10:10;21.60;57.90
49861;DHT22;35761;48.826;9.238;2022-08-19T13:12:44;21.60;58.10
49861;DHT22;35761;48.826;9.238;2022-08-19T13:15:14;21.50;58.70
49861;DHT22;35761;48.826;9.238;2022-08-19T13:17:52;21.50;59.10
49861;DHT22;35761;48.826;9.238;2022-08-19T13:20:23;21.50;59.30
49861;DHT22;35761;48.826;9.238;2022-08-19T13:22:53;21.50;58.90
49861;DHT22;35761;48.826;9.238;2022-08-19T13:25:22;21.50;58.80
49861;DHT22;35761;48.826;9.238;2022-08-19T13:27:52;21.50;59.80
49861;DHT22;35761;48.826;9.238;2022-08-19T13:30:22;21.50;59.80
49861;DHT22;35761;48.826;9.238;2022-08-19T13:33:08;21.50;60.10
49861;DHT22;35761;48.826;9.238;2022-08-19T13:35:45;21.50;61.10
49861;DHT22;35761;48.826;9.238;2022-08-19T13:38:16;21.50;62.00
49861;DHT22;35761;48.826;9.238;2022-08-19T13:40:48;21.50;62.60
49861;DHT22;35761;48.826;9.238;2022-08-19T13:43:22;21.50;62.20
49861;DHT22;35761;48.826;9.238;2022-08-19T13:45:53;21.40;61.60
49861;DHT22;35761;48.826;9.238;2022-08-19T13:48:24;21.50;61.70
49861;DHT22;35761;48.826;9.238;2022-08-19T13:50:54;21.40;61.10
49861;DHT22;35761;48.826;9.238;2022-08-19T13:53:23;21.50;61.40
49861;DHT22;35761;48.826;9.238;2022-08-19T13:55:52;21.40;60.80
49861;DHT22;35761;48.826;9.238;2022-08-19T13:58:22;21.30;61.20
49861;DHT22;35761;48.826;9.238;2022-08-19T14:00:51;21.20;61.60
49861;DHT22;35761;48.826;9.238;2022-08-19T14:03:19;21.20;62.30
49861;DHT22;35761;48.826;9.238;2022-08-19T14:05:48;21.20;62.50
49861;DHT22;35761;48.826;9.238;2022-08-19T14:08:16;21.10;62.90
49861;DHT22;35761;48.826;9.238;2022-08-19T14:10:45;21.10;63.40
49861;DHT22;35761;48.826;9.238;2022-08-19T14:13:17;21.00;64.00
49861;DHT22;35761;48.826;9.238;2022-08-19T14:15:48;21.00;64.00
49861;DHT22;35761;48.826;9.238;2022-08-19T14:18:18;21.00;64.50
49861;DHT22;35761;48.826;9.238;2022-08-19T14:20:47;21.00;64.70
49861;DHT22;35761;48.826;9.238;2022-08-19T14:23:16;21.00;65.00
49861;DHT22;35761;48.826;9.238;2022-08-19T14:25:44;21.00;65.40
49861;DHT22;35761;48.826;9.238;2022-08-19T14:28:13;20.80;65.80
49861;DHT22;35761;48.826;9.238;2022-08-19T14:30:41;20.80;66.60
49861;DHT22;35761;48.826;9.238;2022-08-19T14:33:12;20.70;67.30
49861;DHT22;35761;48.826;9.238;2022-08-19T14:35:41;20.70;67.50
49861;DHT22;35761;48.826;9.238;2022-08-19T14:38:16;20.70;68.10
49861;DHT22;35761;48.826;9.238;2022-08-19T14:41:09;20.70;68.30
49861;DHT22;35761;48.826;9.238;2022-08-19T14:43:39;20.70;69.10
49861;DHT22;35761;48.826;9.238;2022-08-19T14:46:09;20.70;69.20
49861;DHT22;35761;48.826;9.238;2022-08-19T14:48:40;20.70;69.10
49861;DHT22;35761;48.826;9.238;2022-08-19T14:51:09;20.70;69.10
49861;DHT22;35761;48.826;9.238;2022-08-19T14:53:38;20.60;69.00
49861;DHT22;35761;48.826;9.238;2022-08-19T14:56:08;20.60;69.10
49861;DHT22;35761;48.826;9.238;2022-08-19T14:58:37;20.70;69.00
49861;DHT22;35761;48.826;9.238;2022-08-19T15:01:08;20.70;68.30
49861;DHT22;35761;48.826;9.238;2022-08-19T15:03:38;20.70;68.00
49861;DHT22;35761;48.826;9.238;2022-08-19T15:06:08;20.70;67.50
49861;DHT22;35761;48.826;9.238;2022-08-19T15:08:40;20.80;67.30
49861;DHT22;35761;48.826;9.238;2022-08-19T15:11:11;20.90;67.30
49861;DHT22;35761;48.826;9.238;2022-08-19T15:13:42;20.90;66.30
49861;DHT22;35761;48.826;9.238;2022-08-19T15:16:13;21.00;65.90
49861;DHT22;35761;48.826;9.238;2022-08-19T15:18:46;21.10;65.20
49861;DHT22;35761;48.826;9.238;2022-08-19T15:21:17;21.20;64.30
49861;DHT22;35761;48.826;9.238;2022-08-19T15:23:54;21.20;64.70
49861;DHT22;35761;48.826;9.238;2022-08-19T15:26:23;21.20;64.20
49861;DHT22;35761;48.826;9.238;2022-08-19T15:28:53;21.20;64.00
49861;DHT22;35761;48.826;9.238;2022-08-19T15:31:22;21.10;64.30
49861;DHT22;35761;48.826;9.238;2022-08-19T15:33:56;21.10;64.50
49861;DHT22;35761;48.826;9.238;2022-08-19T15:36:26;21.10;64.10
49861;DHT22;35761;48.826;9.238;2022-08-19T15:38:55;21.10;64.10
49861;DHT22;35761;48.826;9.238;2022-08-19T15:41:25;21.10;63.90
49861;DHT22;35761;48.826;9.238;2022-08-19T15:43:58;21.20;64.40
49861;DHT22;35761;48.826;9.238;2022-08-19T15:46:31;21.20;64.40
49861;DHT22;35761;48.826;9.238;2022-08-19T15:49:02;21.30;63.40
49861;DHT22;35761;48.826;9.238;2022-08-19T15:51:33;21.30;62.60
49861;DHT22;35761;48.826;9.238;2022-08-19T15:54:03;21.40;62.70
49861;DHT22;35761;48.826;9.238;2022-08-19T15:56:32;21.40;62.30
49861;DHT22;35761;48.826;9.238;2022-08-19T15:59:34;21.40;61.70
49861;DHT22;35761;48.826;9.238;2022-08-19T16:02:25;21.40;62.80